Clorinda, Argentina
Current Conditions -  °F | °C
As of 4:00 PM on Thursday 23 Oct 2014 (Local Time) from SGAS Reporting Station
Clear Clear  
Wind Chill: 33°   Ceiling: Unl
Heat Index: 33°   Visibility: 6mi
Dew Point: 15°   Wind: 5mph
Humidity: 34%   Direction: NA
Pressure: 29.83"   Gusts: NA
Location:  25.29°S, 57.72°W
Report Text: SGAS 231900Z VRB04KT CAVOK 33/15 Q1010
Loading
Personal Weather Stations






























Interactive Weather Map
Tropical Storm Tracking
New forecast layout! Learn more

10-Day Weather Forecast

Advertisements
Track Severe Weather on mobile